createdAt,value
2023-02-16T00:01:13.662Z,14.07
2023-02-16T00:03:40.107Z,14.80
2023-02-16T00:06:06.752Z,12.65
2023-02-16T00:08:33.345Z,13.07
2023-02-16T00:11:18.345Z,12.07
2023-02-16T00:13:44.904Z,14.77
2023-02-16T00:16:19.438Z,13.05
2023-02-16T00:18:46.247Z,13.65
2023-02-16T00:21:12.766Z,14.07
2023-02-16T00:23:39.196Z,12.82
2023-02-16T00:26:06.314Z,12.80
2023-02-16T00:28:32.874Z,13.40
2023-02-16T00:30:59.631Z,12.13
2023-02-16T00:33:26.262Z,12.45
2023-02-16T00:35:52.640Z,14.23
2023-02-16T00:38:19.030Z,12.18
2023-02-16T00:40:45.580Z,12.45
2023-02-16T00:43:21.862Z,11.93
2023-02-16T00:45:48.443Z,11.93
2023-02-16T00:48:14.895Z,11.65
2023-02-16T00:50:41.437Z,11.13
2023-02-16T00:53:10.372Z,12.50
2023-02-16T00:55:38.271Z,12.93
2023-02-16T00:58:10.994Z,17.90
2023-02-16T01:00:39.699Z,18.85
2023-02-16T01:03:10.157Z,28.48
2023-02-16T01:05:36.640Z,28.25
2023-02-16T01:08:38.820Z,33.50
2023-02-16T01:11:07.443Z,23.08
2023-02-16T01:13:38.233Z,26.95
2023-02-16T01:16:04.705Z,23.90
2023-02-16T01:18:31.531Z,22.45
2023-02-16T01:20:57.918Z,31.25
2023-02-16T01:23:24.404Z,30.25
2023-02-16T01:25:51.100Z,27.88
2023-02-16T01:28:22.069Z,24.65
2023-02-16T01:30:49.516Z,23.55
2023-02-16T01:35:42.261Z,27.85
2023-02-16T01:38:18.249Z,26.30
2023-02-16T01:40:51.387Z,24.05
2023-02-16T01:43:23.068Z,22.52
2023-02-16T01:46:01.604Z,26.35
2023-02-16T01:48:29.336Z,27.98
2023-02-16T01:51:14.604Z,26.25
2023-02-16T01:53:52.279Z,27.17
2023-02-16T01:56:38.648Z,35.53
2023-02-16T01:59:12.856Z,27.40
2023-02-16T02:01:59.856Z,29.92
2023-02-16T02:04:47.530Z,24.63
2023-02-16T02:07:25.283Z,28.80
2023-02-16T02:09:57.533Z,29.02
2023-02-16T02:12:37.354Z,28.67
2023-02-16T02:15:04.360Z,28.13
2023-02-16T02:17:31.329Z,27.30
2023-02-16T02:20:17.887Z,28.25
2023-02-16T02:23:13.935Z,30.25
2023-02-16T02:25:51.263Z,25.70
2023-02-16T02:28:24.122Z,28.08
2023-02-16T02:30:59.748Z,27.63
2023-02-16T02:33:37.125Z,27.23
2023-02-16T02:36:04.022Z,30.80
2023-02-16T02:38:30.468Z,30.00
2023-02-16T02:41:04.607Z,29.83
2023-02-16T02:43:43.194Z,30.23
2023-02-16T02:46:09.710Z,33.97
2023-02-16T02:48:36.180Z,29.88
2023-02-16T02:51:28.661Z,28.25
2023-02-16T02:54:32.640Z,30.75
2023-02-16T02:57:23.009Z,31.52
2023-02-16T03:00:16.594Z,31.27
2023-02-16T03:02:44.370Z,30.67
2023-02-16T03:05:12.104Z,26.15
2023-02-16T03:07:47.724Z,30.45
2023-02-16T03:10:37.794Z,33.53
2023-02-16T03:13:05.816Z,36.78
2023-02-16T03:15:32.997Z,28.90
2023-02-16T03:18:18.736Z,27.75
2023-02-16T03:21:04.537Z,33.38
2023-02-16T03:26:34.831Z,26.55
2023-02-16T03:29:37.306Z,26.60
2023-02-16T03:32:04.103Z,28.63
2023-02-16T03:34:30.851Z,26.63
2023-02-16T03:36:58.602Z,30.38
2023-02-16T03:39:26.064Z,26.08
2023-02-16T03:41:54.113Z,32.83
2023-02-16T03:44:21.070Z,30.15
2023-02-16T03:46:49.537Z,26.92
2023-02-16T03:49:16.605Z,27.17
2023-02-16T03:51:43.176Z,27.35
2023-02-16T03:54:09.552Z,26.52
2023-02-16T03:56:35.924Z,26.20
2023-02-16T03:59:02.499Z,29.75
2023-02-16T04:01:28.979Z,30.40
2023-02-16T04:03:55.451Z,33.03
2023-02-16T04:06:22.056Z,32.15
2023-02-16T04:08:48.584Z,28.77
2023-02-16T04:11:33.842Z,30.52
2023-02-16T04:14:00.283Z,30.48
2023-02-16T04:16:26.800Z,29.92
2023-02-16T04:18:53.250Z,29.42
2023-02-16T04:21:19.654Z,32.30
2023-02-16T04:23:46.040Z,29.40
2023-02-16T04:26:12.497Z,26.48
2023-02-16T04:28:38.855Z,29.92
2023-02-16T04:31:05.758Z,29.25
2023-02-16T04:33:32.445Z,29.92
2023-02-16T04:35:58.896Z,29.52
2023-02-16T04:38:26.123Z,25.83
2023-02-16T04:40:52.563Z,28.70
2023-02-16T04:43:19.011Z,27.88
2023-02-16T04:45:45.474Z,24.92
2023-02-16T04:48:11.857Z,28.17
2023-02-16T04:50:38.252Z,30.58
2023-02-16T04:53:04.646Z,29.88
2023-02-16T04:55:31.079Z,26.95
2023-02-16T04:57:57.444Z,27.88
2023-02-16T05:00:24.004Z,31.55
2023-02-16T05:02:50.514Z,28.95
2023-02-16T05:05:16.994Z,24.35
2023-02-16T05:07:43.427Z,30.52
2023-02-16T05:10:10.013Z,28.08
2023-02-16T05:12:54.892Z,27.35
2023-02-16T05:15:21.878Z,29.70
2023-02-16T05:17:48.364Z,28.55
2023-02-16T05:20:15.033Z,28.95
2023-02-16T05:22:43.431Z,31.27
2023-02-16T05:25:09.864Z,28.00
2023-02-16T05:27:36.984Z,28.60
2023-02-16T05:30:03.585Z,25.90
2023-02-16T05:32:30.085Z,28.40
2023-02-16T05:34:56.444Z,26.92
2023-02-16T05:37:22.877Z,29.17
2023-02-16T05:39:49.239Z,32.40
2023-02-16T05:42:15.658Z,31.65
2023-02-16T05:44:42.098Z,28.25
2023-02-16T05:47:08.593Z,30.92
2023-02-16T05:49:35.104Z,32.50
2023-02-16T05:52:01.594Z,31.13
2023-02-16T05:54:28.188Z,32.42
2023-02-16T05:56:54.679Z,29.38
2023-02-16T05:59:21.226Z,27.95
2023-02-16T06:01:51.285Z,28.17
2023-02-16T06:04:18.110Z,26.25
2023-02-16T06:06:44.501Z,27.48
2023-02-16T06:09:10.997Z,32.75
2023-02-16T06:11:37.432Z,30.95
2023-02-16T06:14:07.401Z,31.10
2023-02-16T06:16:34.453Z,27.85
2023-02-16T06:19:01.077Z,27.90
2023-02-16T06:21:27.998Z,30.20
2023-02-16T06:23:54.516Z,30.60
2023-02-16T06:26:21.291Z,28.70
2023-02-16T06:28:47.867Z,27.08
2023-02-16T06:31:14.509Z,25.13
2023-02-16T06:33:41.067Z,25.75
2023-02-16T06:36:07.741Z,27.25
2023-02-16T06:38:34.209Z,26.92
2023-02-16T06:41:00.917Z,28.55
2023-02-16T06:43:28.789Z,31.48
2023-02-16T06:45:57.313Z,26.27
2023-02-16T06:48:23.758Z,28.67
2023-02-16T06:50:52.594Z,28.20
2023-02-16T06:53:20.324Z,25.23
2023-02-16T06:55:47.040Z,29.60
2023-02-16T06:58:13.416Z,30.83
2023-02-16T07:00:39.887Z,27.85
2023-02-16T07:03:06.336Z,28.58
2023-02-16T07:05:32.881Z,30.02
2023-02-16T07:07:59.319Z,28.38
2023-02-16T07:10:25.682Z,27.55
2023-02-16T07:12:52.102Z,28.98
2023-02-16T07:15:18.587Z,29.15
2023-02-16T07:17:44.977Z,30.63
2023-02-16T07:20:12.773Z,29.52
2023-02-16T07:22:39.338Z,32.45
2023-02-16T07:25:05.948Z,33.13
2023-02-16T07:27:32.358Z,26.63
2023-02-16T07:29:58.835Z,29.52
2023-02-16T07:32:25.295Z,27.70
2023-02-16T07:34:51.720Z,31.23
2023-02-16T07:39:46.099Z,31.75
2023-02-16T07:42:12.553Z,30.35
2023-02-16T07:44:42.871Z,28.05
2023-02-16T07:47:09.260Z,27.70
2023-02-16T07:49:35.709Z,30.75
2023-02-16T07:52:02.112Z,29.13
2023-02-16T07:54:28.501Z,27.17
2023-02-16T07:56:55.023Z,31.15
2023-02-16T07:59:21.409Z,26.33
2023-02-16T08:01:47.817Z,30.50
2023-02-16T08:04:14.436Z,29.60
2023-02-16T08:06:40.933Z,27.33
2023-02-16T08:09:07.426Z,26.20
2023-02-16T08:11:33.997Z,23.83
2023-02-16T08:14:00.475Z,28.77
2023-02-16T08:16:27.904Z,21.25
2023-02-16T08:18:58.655Z,22.55
2023-02-16T08:21:25.844Z,24.63
2023-02-16T08:23:54.017Z,21.13
2023-02-16T08:26:23.649Z,20.48
2023-02-16T08:28:50.320Z,18.23
2023-02-16T08:31:18.883Z,16.88
2023-02-16T08:33:46.137Z,17.45
2023-02-16T08:36:34.795Z,15.75
2023-02-16T08:39:04.040Z,17.05
2023-02-16T08:41:32.200Z,15.35
2023-02-16T08:44:00.816Z,13.80
2023-02-16T08:46:29.158Z,13.75
2023-02-16T08:48:58.448Z,14.02
2023-02-16T08:51:25.540Z,15.07
2023-02-16T08:53:52.433Z,13.50
2023-02-16T08:56:19.876Z,13.52
2023-02-16T08:58:46.831Z,14.02
2023-02-16T09:01:15.161Z,15.07
2023-02-16T09:03:42.850Z,12.25
2023-02-16T09:06:10.328Z,13.32
2023-02-16T09:08:39.928Z,15.30
2023-02-16T09:11:07.616Z,13.07
2023-02-16T09:13:35.633Z,12.95
2023-02-16T09:16:04.349Z,11.88
2023-02-16T09:18:33.012Z,12.55
2023-02-16T09:21:03.924Z,12.82
2023-02-16T09:23:30.722Z,11.77
2023-02-16T09:25:59.324Z,11.95
2023-02-16T09:28:25.699Z,11.88
2023-02-16T09:30:54.228Z,12.15
2023-02-16T09:33:21.737Z,11.65
2023-02-16T09:35:48.143Z,12.18
2023-02-16T09:38:16.802Z,11.20
2023-02-16T09:40:43.599Z,10.80
2023-02-16T09:43:29.434Z,11.07
2023-02-16T09:45:58.747Z,11.40
2023-02-16T09:48:38.528Z,10.85
2023-02-16T09:51:06.581Z,10.32
2023-02-16T09:53:40.716Z,11.10
2023-02-16T09:56:22.601Z,10.10
2023-02-16T09:58:56.356Z,11.15
2023-02-16T10:01:34.930Z,11.30
2023-02-16T10:04:20.002Z,10.38
2023-02-16T10:06:58.285Z,11.07
2023-02-16T10:09:27.320Z,10.55
2023-02-16T10:12:01.908Z,12.70
2023-02-16T10:14:43.327Z,12.65
2023-02-16T10:17:28.259Z,11.32
2023-02-16T10:20:13.310Z,11.15
2023-02-16T10:22:39.756Z,11.68
2023-02-16T10:25:12.900Z,11.93
2023-02-16T10:27:41.949Z,10.07
2023-02-16T10:30:11.910Z,11.57
2023-02-16T10:32:44.062Z,11.60
2023-02-16T10:35:13.667Z,11.40
2023-02-16T10:37:43.130Z,12.85
2023-02-16T10:40:16.039Z,10.25
2023-02-16T10:42:46.232Z,11.45
2023-02-16T10:45:15.586Z,11.23
2023-02-16T10:47:43.636Z,10.45
2023-02-16T10:50:16.394Z,11.90
2023-02-16T10:52:43.913Z,11.32
2023-02-16T10:55:11.802Z,11.52
2023-02-16T10:57:39.672Z,12.15
2023-02-16T11:00:08.151Z,13.63
2023-02-16T11:02:37.323Z,11.05
2023-02-16T11:05:23.714Z,20.40
2023-02-16T11:07:54.542Z,12.43
2023-02-16T11:10:22.349Z,9.95
2023-02-16T11:12:55.403Z,11.00
2023-02-16T11:15:22.959Z,10.75
2023-02-16T11:17:54.652Z,11.18
2023-02-16T11:20:46.666Z,10.63
2023-02-16T11:23:15.428Z,11.18
2023-02-16T11:25:42.666Z,10.98
2023-02-16T11:30:42.322Z,10.23
2023-02-16T11:33:20.700Z,10.60
2023-02-16T11:35:47.565Z,11.35
2023-02-16T11:38:26.035Z,12.38
2023-02-16T11:40:53.494Z,11.15
2023-02-16T11:43:20.225Z,11.07
2023-02-16T11:46:02.035Z,11.57
2023-02-16T11:48:31.265Z,10.40
2023-02-16T11:50:59.941Z,12.52
2023-02-16T11:53:27.844Z,11.82
2023-02-16T11:56:10.641Z,11.68
2023-02-16T11:58:37.754Z,11.57
2023-02-16T12:01:10.042Z,13.25
2023-02-16T12:03:39.221Z,12.13
2023-02-16T12:06:11.519Z,13.63
2023-02-16T12:08:38.587Z,13.43
2023-02-16T12:11:12.849Z,14.18
2023-02-16T12:13:54.339Z,15.77
2023-02-16T12:16:27.352Z,15.57
2023-02-16T12:19:02.969Z,12.70
2023-02-16T12:21:35.012Z,12.50
2023-02-16T12:24:01.776Z,14.43
2023-02-16T12:26:34.087Z,14.90
2023-02-16T12:29:00.596Z,14.38
2023-02-16T12:31:39.416Z,26.98
2023-02-16T12:34:12.155Z,17.15
2023-02-16T12:36:57.399Z,17.13
2023-02-16T12:39:23.766Z,17.48
2023-02-16T12:42:05.510Z,15.50
2023-02-16T12:44:38.277Z,15.85
2023-02-16T12:47:08.201Z,16.80
2023-02-16T12:49:55.023Z,13.13
2023-02-16T12:52:40.266Z,14.57
2023-02-16T12:55:06.728Z,14.05
2023-02-16T12:57:34.050Z,14.52
2023-02-16T13:00:19.233Z,15.52
2023-02-16T13:02:56.798Z,15.13
2023-02-16T13:05:32.329Z,15.90
2023-02-16T13:08:22.049Z,15.02
2023-02-16T13:11:03.312Z,16.08
2023-02-16T13:13:33.173Z,17.05
2023-02-16T13:16:05.768Z,19.13
2023-02-16T13:18:34.102Z,14.98
2023-02-16T13:21:03.658Z,15.35
2023-02-16T13:23:41.832Z,17.38
2023-02-16T13:26:19.368Z,12.88
2023-02-16T13:29:02.061Z,12.50
2023-02-16T13:31:47.427Z,11.15
2023-02-16T13:34:23.306Z,13.05
2023-02-16T13:36:49.683Z,12.25
2023-02-16T13:39:16.356Z,13.13
2023-02-16T13:41:57.584Z,12.13
2023-02-16T13:44:25.899Z,13.95
2023-02-16T13:46:53.912Z,14.35
2023-02-16T13:49:40.294Z,14.85
2023-02-16T13:52:08.611Z,16.17
2023-02-16T13:54:36.864Z,16.38
2023-02-16T13:57:04.354Z,14.38
2023-02-16T13:59:36.966Z,13.25
2023-02-16T14:02:04.638Z,13.07
2023-02-16T14:04:31.064Z,13.20
2023-02-16T14:07:03.670Z,14.02
2023-02-16T14:09:33.461Z,12.63
2023-02-16T14:12:02.167Z,12.23
2023-02-16T14:14:36.471Z,12.75
2023-02-16T14:17:23.213Z,11.70
2023-02-16T14:19:52.533Z,13.07
2023-02-16T14:22:21.281Z,12.27
2023-02-16T14:24:52.491Z,13.52
2023-02-16T14:27:38.830Z,12.00
2023-02-16T14:30:12.522Z,11.85
2023-02-16T14:32:39.045Z,11.85
2023-02-16T14:35:08.148Z,11.27
2023-02-16T14:37:44.336Z,12.23
2023-02-16T14:40:12.540Z,12.50
2023-02-16T14:42:44.324Z,11.95
2023-02-16T14:45:13.530Z,12.50
2023-02-16T14:47:49.195Z,12.60
2023-02-16T14:50:15.578Z,14.23
2023-02-16T14:52:45.844Z,16.80
2023-02-16T14:55:12.281Z,17.80
2023-02-16T14:57:54.290Z,17.73
2023-02-16T15:00:41.923Z,17.42
2023-02-16T15:03:17.211Z,14.75
2023-02-16T15:05:49.090Z,15.40
2023-02-16T15:08:22.428Z,15.07
2023-02-16T15:13:19.763Z,15.43
2023-02-16T15:15:48.568Z,15.50
2023-02-16T15:18:22.595Z,15.35
2023-02-16T15:20:51.542Z,14.75
2023-02-16T15:23:21.463Z,14.55
2023-02-16T15:25:56.937Z,13.57
2023-02-16T15:28:28.135Z,14.68
2023-02-16T15:31:07.785Z,12.65
2023-02-16T15:33:36.305Z,13.00
2023-02-16T15:36:04.872Z,13.07
2023-02-16T15:38:32.825Z,16.23
2023-02-16T15:41:00.978Z,13.20
2023-02-16T15:43:33.658Z,14.27
2023-02-16T15:46:02.976Z,12.90
2023-02-16T15:48:34.602Z,13.60
2023-02-16T15:51:10.991Z,14.23
2023-02-16T15:53:41.433Z,14.40
2023-02-16T15:56:37.469Z,16.02
2023-02-16T15:59:27.930Z,14.20
2023-02-16T16:02:18.526Z,13.35
2023-02-16T16:05:05.502Z,14.25
2023-02-16T16:07:35.549Z,13.00
2023-02-16T16:10:02.896Z,13.40
2023-02-16T16:14:57.689Z,12.80
2023-02-16T16:17:29.714Z,13.45
2023-02-16T16:19:57.446Z,11.85
2023-02-16T16:22:33.036Z,13.15
2023-02-16T16:24:59.757Z,10.95
2023-02-16T16:27:36.524Z,11.63
2023-02-16T16:30:24.672Z,11.68
2023-02-16T16:33:01.320Z,11.48
2023-02-16T16:35:37.081Z,12.02
2023-02-16T16:38:04.604Z,13.52
2023-02-16T16:40:34.813Z,11.95
2023-02-16T16:43:04.409Z,11.73
2023-02-16T16:45:38.655Z,11.15
2023-02-16T16:48:14.192Z,12.10
2023-02-16T16:50:41.053Z,12.35
2023-02-16T16:53:27.374Z,10.68
2023-02-16T16:55:53.777Z,11.65
2023-02-16T16:58:20.190Z,13.98
2023-02-16T17:00:46.679Z,11.60
2023-02-16T17:03:14.417Z,11.60
2023-02-16T17:05:41.478Z,11.43
2023-02-16T17:08:08.503Z,11.93
2023-02-16T17:10:35.843Z,12.38
2023-02-16T17:15:32.107Z,11.00
2023-02-16T17:17:58.776Z,11.52
2023-02-16T17:20:25.255Z,11.88
2023-02-16T17:22:51.804Z,11.63
2023-02-16T17:25:18.602Z,12.45
2023-02-16T17:27:44.961Z,13.45
2023-02-16T17:30:11.960Z,14.80
2023-02-16T17:32:38.327Z,15.70
2023-02-16T17:35:04.980Z,16.00
2023-02-16T17:37:35.578Z,16.33
2023-02-16T17:40:02.797Z,16.52
2023-02-16T17:42:29.166Z,17.35
2023-02-16T17:44:55.633Z,19.98
2023-02-16T17:47:22.472Z,18.05
2023-02-16T17:49:48.815Z,17.40
2023-02-16T17:52:15.199Z,18.75
2023-02-16T17:54:41.615Z,17.38
2023-02-16T17:57:09.561Z,15.85
2023-02-16T17:59:36.152Z,17.02
2023-02-16T18:02:02.511Z,13.73
2023-02-16T18:04:29.109Z,15.63
2023-02-16T18:06:55.489Z,14.55
2023-02-16T18:09:24.573Z,15.60
2023-02-16T18:11:51.100Z,14.20
2023-02-16T18:14:17.558Z,12.00
2023-02-16T18:16:44.044Z,12.88
2023-02-16T18:19:13.780Z,12.95
2023-02-16T18:21:40.161Z,13.43
2023-02-16T18:24:06.673Z,13.02
2023-02-16T18:26:33.703Z,12.73
2023-02-16T18:29:00.090Z,12.43
2023-02-16T18:31:26.613Z,12.95
2023-02-16T18:33:53.034Z,11.55
2023-02-16T18:36:19.431Z,12.00
2023-02-16T18:38:45.803Z,12.05
2023-02-16T18:41:13.016Z,11.02
2023-02-16T18:43:39.377Z,11.15
2023-02-16T18:46:06.886Z,10.98
2023-02-16T18:48:33.638Z,11.48
2023-02-16T18:51:03.175Z,10.05
2023-02-16T18:53:29.537Z,11.98
2023-02-16T18:55:55.964Z,12.18
2023-02-16T18:58:22.354Z,12.20
2023-02-16T19:00:49.049Z,11.10
2023-02-16T19:03:15.482Z,11.10
2023-02-16T19:05:41.978Z,10.85
2023-02-16T19:08:08.379Z,10.43
2023-02-16T19:10:34.760Z,9.80
2023-02-16T19:13:02.207Z,10.13
2023-02-16T19:15:28.845Z,10.70
2023-02-16T19:17:55.243Z,10.55
2023-02-16T19:20:21.607Z,10.20
2023-02-16T19:22:48.710Z,10.02
2023-02-16T19:25:15.760Z,9.90
2023-02-16T19:27:42.781Z,10.50
2023-02-16T19:30:09.692Z,9.73
2023-02-16T19:32:36.621Z,9.90
2023-02-16T19:35:03.724Z,10.07
2023-02-16T19:37:30.182Z,10.32
2023-02-16T19:39:56.590Z,10.20
2023-02-16T19:42:22.930Z,9.60
2023-02-16T19:44:49.385Z,17.10
2023-02-16T19:47:15.755Z,9.52
2023-02-16T19:49:42.629Z,9.85
2023-02-16T19:52:08.995Z,10.07
2023-02-16T19:54:35.860Z,9.35
2023-02-16T19:57:02.840Z,9.50
2023-02-16T19:59:29.404Z,9.52
2023-02-16T20:01:55.913Z,9.07
2023-02-16T20:04:22.866Z,9.13
2023-02-16T20:06:49.718Z,9.27
2023-02-16T20:09:18.286Z,9.30
2023-02-16T20:11:44.832Z,9.20
2023-02-16T20:14:11.810Z,9.38
2023-02-16T20:16:38.416Z,8.95
2023-02-16T20:19:04.792Z,8.05
2023-02-16T20:21:31.327Z,8.75
2023-02-16T20:23:59.378Z,9.52
2023-02-16T20:26:27.970Z,8.55
2023-02-16T20:28:54.553Z,7.88
2023-02-16T20:31:21.015Z,8.43
2023-02-16T20:33:47.684Z,8.43
2023-02-16T20:36:14.224Z,8.18
2023-02-16T20:38:40.651Z,8.00
2023-02-16T20:41:07.430Z,7.68
2023-02-16T20:43:33.991Z,7.78
2023-02-16T20:46:04.884Z,7.75
2023-02-16T20:48:31.531Z,8.05
2023-02-16T20:50:59.740Z,8.10
2023-02-16T20:53:26.962Z,8.88
2023-02-16T20:56:01.311Z,8.40
2023-02-16T20:58:27.833Z,7.57
2023-02-16T21:00:54.336Z,8.35
2023-02-16T21:03:20.856Z,6.88
2023-02-16T21:05:47.221Z,7.50
2023-02-16T21:08:13.766Z,7.35
2023-02-16T21:10:40.325Z,6.93
2023-02-16T21:13:06.795Z,6.85
2023-02-16T21:15:33.212Z,7.45
2023-02-16T21:18:00.061Z,7.07
2023-02-16T21:20:26.471Z,6.43
2023-02-16T21:22:52.889Z,7.13
2023-02-16T21:25:19.338Z,6.60
2023-02-16T21:27:45.717Z,7.20
2023-02-16T21:30:12.442Z,7.18
2023-02-16T21:32:38.871Z,6.65
2023-02-16T21:35:05.513Z,7.38
2023-02-16T21:37:32.011Z,6.75
2023-02-16T21:40:17.168Z,6.43
2023-02-16T21:42:43.535Z,6.40
2023-02-16T21:45:12.945Z,5.88
2023-02-16T21:48:02.573Z,7.72
2023-02-16T21:50:29.627Z,6.55
2023-02-16T21:52:56.156Z,7.72
2023-02-16T21:55:41.433Z,8.40
2023-02-16T21:58:08.353Z,15.02
2023-02-16T22:00:35.810Z,11.55
2023-02-16T22:03:02.416Z,8.65
2023-02-16T22:05:28.965Z,11.43
2023-02-16T22:07:55.361Z,7.75
2023-02-16T22:10:21.725Z,6.95
2023-02-16T22:12:48.156Z,8.75
2023-02-16T22:15:14.559Z,8.00
2023-02-16T22:17:41.120Z,11.85
2023-02-16T22:20:08.289Z,9.95
2023-02-16T22:22:34.704Z,9.38
2023-02-16T22:25:01.102Z,8.85
2023-02-16T22:27:27.547Z,6.07
2023-02-16T22:29:54.053Z,10.02
2023-02-16T22:32:20.713Z,8.52
2023-02-16T22:34:47.075Z,8.75
2023-02-16T22:37:13.480Z,8.20
2023-02-16T22:39:39.938Z,8.32
2023-02-16T22:42:06.365Z,9.18
2023-02-16T22:44:32.708Z,8.50
2023-02-16T22:46:59.104Z,21.75
2023-02-16T22:49:25.535Z,11.25
2023-02-16T22:51:52.113Z,16.05
2023-02-16T22:54:18.575Z,11.93
2023-02-16T22:56:44.985Z,12.60
2023-02-16T22:59:11.593Z,9.90
2023-02-16T23:01:38.232Z,10.82
2023-02-16T23:04:04.697Z,18.77
2023-02-16T23:06:32.635Z,13.20
2023-02-16T23:09:00.865Z,13.63
2023-02-16T23:11:27.713Z,9.48
2023-02-16T23:13:54.524Z,10.27
2023-02-16T23:16:22.617Z,9.23
2023-02-16T23:18:49.257Z,12.40
2023-02-16T23:21:19.746Z,13.05
2023-02-16T23:23:46.815Z,14.73
2023-02-16T23:26:13.295Z,11.13
2023-02-16T23:28:40.600Z,10.63
2023-02-16T23:31:07.119Z,9.38
2023-02-16T23:33:33.906Z,10.40
2023-02-16T23:36:00.763Z,10.50
2023-02-16T23:38:27.217Z,7.35
2023-02-16T23:40:57.661Z,8.57
2023-02-16T23:43:24.484Z,7.40
2023-02-16T23:45:51.070Z,7.68
2023-02-16T23:48:17.524Z,7.80
2023-02-16T23:50:44.064Z,6.53
2023-02-16T23:53:10.513Z,8.50
2023-02-16T23:55:36.872Z,8.10
2023-02-16T23:58:03.240Z,8.15
